sensor_id;sensor_type;location;lat;lon;timestamp;temperature;humidity
19646;DHT22;9971;52.446;13.452;2023-05-02T00:04:15;15.90;93.00
19646;DHT22;9971;52.446;13.452;2023-05-02T00:09:18;15.90;92.80
19646;DHT22;9971;52.446;13.452;2023-05-02T00:14:20;15.80;92.60
19646;DHT22;9971;52.446;13.452;2023-05-02T00:19:23;15.70;92.60
19646;DHT22;9971;52.446;13.452;2023-05-02T00:24:25;15.70;92.60
19646;DHT22;9971;52.446;13.452;2023-05-02T00:29:28;15.60;92.50
19646;DHT22;9971;52.446;13.452;2023-05-02T00:34:30;15.50;92.60
19646;DHT22;9971;52.446;13.452;2023-05-02T00:39:33;15.50;92.50
19646;DHT22;9971;52.446;13.452;2023-05-02T00:44:35;15.40;92.60
19646;DHT22;9971;52.446;13.452;2023-05-02T00:49:37;15.40;92.70
19646;DHT22;9971;52.446;13.452;2023-05-02T00:54:40;15.40;92.70
19646;DHT22;9971;52.446;13.452;2023-05-02T00:59:42;15.30;92.90
19646;DHT22;9971;52.446;13.452;2023-05-02T01:04:50;15.30;93.40
19646;DHT22;9971;52.446;13.452;2023-05-02T01:10:07;15.30;93.80
19646;DHT22;9971;52.446;13.452;2023-05-02T01:15:04;15.30;93.90
19646;DHT22;9971;52.446;13.452;2023-05-02T01:20:05;15.20;94.50
19646;DHT22;9971;52.446;13.452;2023-05-02T01:25:26;15.20;94.80
19646;DHT22;9971;52.446;13.452;2023-05-02T01:30:27;15.10;95.10
19646;DHT22;9971;52.446;13.452;2023-05-02T01:35:28;15.10;95.70
19646;DHT22;9971;52.446;13.452;2023-05-02T01:40:30;15.10;96.30
19646;DHT22;9971;52.446;13.452;2023-05-02T01:45:32;15.00;96.90
19646;DHT22;9971;52.446;13.452;2023-05-02T01:50:34;15.10;97.50
19646;DHT22;9971;52.446;13.452;2023-05-02T01:55:36;15.10;98.10
19646;DHT22;9971;52.446;13.452;2023-05-02T02:00:38;15.10;98.60
19646;DHT22;9971;52.446;13.452;2023-05-02T02:05:40;15.00;99.00
19646;DHT22;9971;52.446;13.452;2023-05-02T02:10:44;15.00;99.50
19646;DHT22;9971;52.446;13.452;2023-05-02T02:15:46;15.00;99.90
19646;DHT22;9971;52.446;13.452;2023-05-02T02:20:47;14.90;99.90
19646;DHT22;9971;52.446;13.452;2023-05-02T02:25:49;14.80;99.90
19646;DHT22;9971;52.446;13.452;2023-05-02T02:30:51;14.80;99.90
19646;DHT22;9971;52.446;13.452;2023-05-02T02:35:56;14.80;99.90
19646;DHT22;9971;52.446;13.452;2023-05-02T02:40:58;14.70;99.90
19646;DHT22;9971;52.446;13.452;2023-05-02T02:46:16;14.50;99.90
19646;DHT22;9971;52.446;13.452;2023-05-02T02:51:24;14.50;99.90
19646;DHT22;9971;52.446;13.452;2023-05-02T02:56:26;14.40;99.90
19646;DHT22;9971;52.446;13.452;2023-05-02T03:01:28;14.20;99.90
19646;DHT22;9971;52.446;13.452;2023-05-02T03:06:29;14.20;99.90
19646;DHT22;9971;52.446;13.452;2023-05-02T03:11:31;14.10;99.90
19646;DHT22;9971;52.446;13.452;2023-05-02T03:16:35;14.00;99.90
19646;DHT22;9971;52.446;13.452;2023-05-02T03:21:36;13.90;99.90
19646;DHT22;9971;52.446;13.452;2023-05-02T03:26:39;13.90;99.90
19646;DHT22;9971;52.446;13.452;2023-05-02T03:31:41;13.90;99.90
19646;DHT22;9971;52.446;13.452;2023-05-02T03:36:44;13.80;99.90
19646;DHT22;9971;52.446;13.452;2023-05-02T03:41:46;13.80;99.90
19646;DHT22;9971;52.446;13.452;2023-05-02T03:46:49;13.70;99.90
19646;DHT22;9971;52.446;13.452;2023-05-02T03:51:51;13.70;99.90
19646;DHT22;9971;52.446;13.452;2023-05-02T03:56:53;13.60;99.90
19646;DHT22;9971;52.446;13.452;2023-05-02T04:01:56;13.60;99.90
19646;DHT22;9971;52.446;13.452;2023-05-02T04:06:59;13.50;99.90
19646;DHT22;9971;52.446;13.452;2023-05-02T04:12:01;13.50;99.90
19646;DHT22;9971;52.446;13.452;2023-05-02T04:17:03;13.50;99.90
19646;DHT22;9971;52.446;13.452;2023-05-02T04:22:05;13.40;99.90
19646;DHT22;9971;52.446;13.452;2023-05-02T04:27:08;13.40;99.90
19646;DHT22;9971;52.446;13.452;2023-05-02T04:32:10;13.40;99.90
19646;DHT22;9971;52.446;13.452;2023-05-02T04:37:13;13.40;99.90
19646;DHT22;9971;52.446;13.452;2023-05-02T04:42:15;13.50;99.90
19646;DHT22;9971;52.446;13.452;2023-05-02T04:47:18;13.60;99.90
19646;DHT22;9971;52.446;13.452;2023-05-02T04:52:20;13.60;99.90
19646;DHT22;9971;52.446;13.452;2023-05-02T04:57:24;13.70;99.90
19646;DHT22;9971;52.446;13.452;2023-05-02T05:02:26;13.70;99.90
19646;DHT22;9971;52.446;13.452;2023-05-02T05:07:28;13.90;99.90
19646;DHT22;9971;52.446;13.452;2023-05-02T05:12:31;13.90;99.90
19646;DHT22;9971;52.446;13.452;2023-05-02T05:17:33;14.00;99.90
19646;DHT22;9971;52.446;13.452;2023-05-02T05:22:38;14.00;99.90
19646;DHT22;9971;52.446;13.452;2023-05-02T05:27:40;14.10;99.90
19646;DHT22;9971;52.446;13.452;2023-05-02T05:32:42;14.10;99.90
19646;DHT22;9971;52.446;13.452;2023-05-02T05:37:45;14.00;99.90
19646;DHT22;9971;52.446;13.452;2023-05-02T05:42:47;14.10;99.90
19646;DHT22;9971;52.446;13.452;2023-05-02T05:47:52;14.20;99.90
19646;DHT22;9971;52.446;13.452;2023-05-02T05:52:53;14.20;99.90
19646;DHT22;9971;52.446;13.452;2023-05-02T05:57:55;14.20;99.90
19646;DHT22;9971;52.446;13.452;2023-05-02T06:02:57;14.30;99.90
19646;DHT22;9971;52.446;13.452;2023-05-02T06:08:00;14.30;99.90
19646;DHT22;9971;52.446;13.452;2023-05-02T06:13:02;14.40;99.90
19646;DHT22;9971;52.446;13.452;2023-05-02T06:18:07;14.40;99.90
19646;DHT22;9971;52.446;13.452;2023-05-02T06:23:09;14.50;99.90
19646;DHT22;9971;52.446;13.452;2023-05-02T06:28:12;14.50;99.90
19646;DHT22;9971;52.446;13.452;2023-05-02T06:33:14;14.50;99.90
19646;DHT22;9971;52.446;13.452;2023-05-02T06:38:17;14.50;99.90
19646;DHT22;9971;52.446;13.452;2023-05-02T06:43:19;14.50;99.90
19646;DHT22;9971;52.446;13.452;2023-05-02T06:48:21;14.60;99.90
19646;DHT22;9971;52.446;13.452;2023-05-02T06:53:24;14.70;99.90
19646;DHT22;9971;52.446;13.452;2023-05-02T06:58:27;14.80;99.90
19646;DHT22;9971;52.446;13.452;2023-05-02T07:03:29;14.80;99.90
19646;DHT22;9971;52.446;13.452;2023-05-02T07:08:32;14.90;99.90
19646;DHT22;9971;52.446;13.452;2023-05-02T07:13:34;14.90;99.90
19646;DHT22;9971;52.446;13.452;2023-05-02T07:18:36;15.00;99.90
19646;DHT22;9971;52.446;13.452;2023-05-02T07:23:39;15.10;99.90
19646;DHT22;9971;52.446;13.452;2023-05-02T07:28:42;15.20;99.90
19646;DHT22;9971;52.446;13.452;2023-05-02T07:33:45;15.30;99.90
19646;DHT22;9971;52.446;13.452;2023-05-02T07:38:47;15.40;99.90
19646;DHT22;9971;52.446;13.452;2023-05-02T07:43:49;15.50;99.90
19646;DHT22;9971;52.446;13.452;2023-05-02T07:48:52;15.50;99.90
19646;DHT22;9971;52.446;13.452;2023-05-02T07:53:54;15.50;99.90
19646;DHT22;9971;52.446;13.452;2023-05-02T07:58:57;15.60;99.90
19646;DHT22;9971;52.446;13.452;2023-05-02T08:03:59;15.60;99.90
19646;DHT22;9971;52.446;13.452;2023-05-02T08:09:01;15.60;99.90
19646;DHT22;9971;52.446;13.452;2023-05-02T08:14:04;15.50;99.90
19646;DHT22;9971;52.446;13.452;2023-05-02T08:19:06;15.60;99.90
19646;DHT22;9971;52.446;13.452;2023-05-02T08:24:08;15.70;99.90
19646;DHT22;9971;52.446;13.452;2023-05-02T08:29:11;15.60;99.90
19646;DHT22;9971;52.446;13.452;2023-05-02T08:34:14;15.70;99.90
19646;DHT22;9971;52.446;13.452;2023-05-02T08:39:17;15.80;99.90
19646;DHT22;9971;52.446;13.452;2023-05-02T08:44:19;16.00;99.90
19646;DHT22;9971;52.446;13.452;2023-05-02T08:49:23;15.90;99.90
19646;DHT22;9971;52.446;13.452;2023-05-02T08:54:24;16.00;99.90
19646;DHT22;9971;52.446;13.452;2023-05-02T08:59:26;16.20;99.90
19646;DHT22;9971;52.446;13.452;2023-05-02T09:04:30;16.30;99.90
19646;DHT22;9971;52.446;13.452;2023-05-02T09:09:30;16.50;99.90
19646;DHT22;9971;52.446;13.452;2023-05-02T09:14:33;16.70;99.90
19646;DHT22;9971;52.446;13.452;2023-05-02T09:19:35;16.70;99.90
19646;DHT22;9971;52.446;13.452;2023-05-02T09:24:38;16.60;99.90
19646;DHT22;9971;52.446;13.452;2023-05-02T09:29:41;16.60;99.90
19646;DHT22;9971;52.446;13.452;2023-05-02T09:35:03;16.40;99.90
19646;DHT22;9971;52.446;13.452;2023-05-02T09:39:46;16.40;99.90
19646;DHT22;9971;52.446;13.452;2023-05-02T09:44:48;16.50;99.90
19646;DHT22;9971;52.446;13.452;2023-05-02T09:49:50;16.50;99.90
19646;DHT22;9971;52.446;13.452;2023-05-02T09:54:53;16.40;99.90
19646;DHT22;9971;52.446;13.452;2023-05-02T09:59:56;16.30;99.90
19646;DHT22;9971;52.446;13.452;2023-05-02T10:04:57;16.20;99.90
19646;DHT22;9971;52.446;13.452;2023-05-02T10:09:59;16.30;99.90
19646;DHT22;9971;52.446;13.452;2023-05-02T10:15:03;16.30;99.90
19646;DHT22;9971;52.446;13.452;2023-05-02T10:20:05;16.30;99.90
19646;DHT22;9971;52.446;13.452;2023-05-02T10:25:08;16.20;99.90
19646;DHT22;9971;52.446;13.452;2023-05-02T10:30:10;16.20;99.90
19646;DHT22;9971;52.446;13.452;2023-05-02T10:35:12;16.10;99.90
19646;DHT22;9971;52.446;13.452;2023-05-02T10:40:15;16.20;99.90
19646;DHT22;9971;52.446;13.452;2023-05-02T10:45:33;16.20;99.90
19646;DHT22;9971;52.446;13.452;2023-05-02T10:50:54;16.20;99.90
19646;DHT22;9971;52.446;13.452;2023-05-02T10:56:10;15.80;99.90
19646;DHT22;9971;52.446;13.452;2023-05-02T11:01:32;15.60;99.90
19646;DHT22;9971;52.446;13.452;2023-05-02T11:06:35;15.30;99.90
19646;DHT22;9971;52.446;13.452;2023-05-02T11:11:41;15.20;99.90
19646;DHT22;9971;52.446;13.452;2023-05-02T11:38:02;14.50;99.90
19646;DHT22;9971;52.446;13.452;2023-05-02T11:43:12;14.40;99.90
19646;DHT22;9971;52.446;13.452;2023-05-02T11:48:14;14.30;99.90
19646;DHT22;9971;52.446;13.452;2023-05-02T11:53:19;14.40;99.90
19646;DHT22;9971;52.446;13.452;2023-05-02T11:58:21;14.60;99.90
19646;DHT22;9971;52.446;13.452;2023-05-02T12:03:26;14.80;99.90
19646;DHT22;9971;52.446;13.452;2023-05-02T12:08:27;15.10;99.90
19646;DHT22;9971;52.446;13.452;2023-05-02T12:13:27;15.20;99.90
19646;DHT22;9971;52.446;13.452;2023-05-02T12:18:29;15.10;99.90
19646;DHT22;9971;52.446;13.452;2023-05-02T12:23:31;15.00;99.90
19646;DHT22;9971;52.446;13.452;2023-05-02T12:28:35;14.90;99.90
19646;DHT22;9971;52.446;13.452;2023-05-02T12:33:41;15.00;99.90
19646;DHT22;9971;52.446;13.452;2023-05-02T12:38:52;15.10;99.90
19646;DHT22;9971;52.446;13.452;2023-05-02T12:43:53;15.30;99.90
19646;DHT22;9971;52.446;13.452;2023-05-02T12:49:04;15.30;99.90
19646;DHT22;9971;52.446;13.452;2023-05-02T12:54:06;15.60;99.90
19646;DHT22;9971;52.446;13.452;2023-05-02T12:59:08;16.10;99.90
19646;DHT22;9971;52.446;13.452;2023-05-02T13:04:10;16.40;99.90
19646;DHT22;9971;52.446;13.452;2023-05-02T13:09:13;16.90;99.90
19646;DHT22;9971;52.446;13.452;2023-05-02T13:14:15;17.20;99.90
19646;DHT22;9971;52.446;13.452;2023-05-02T13:19:18;16.90;99.90
19646;DHT22;9971;52.446;13.452;2023-05-02T13:24:20;17.00;99.90
19646;DHT22;9971;52.446;13.452;2023-05-02T13:29:23;17.40;99.90
19646;DHT22;9971;52.446;13.452;2023-05-02T13:34:25;17.80;99.90
19646;DHT22;9971;52.446;13.452;2023-05-02T13:39:28;18.30;99.90
19646;DHT22;9971;52.446;13.452;2023-05-02T13:44:30;18.40;99.20
19646;DHT22;9971;52.446;13.452;2023-05-02T13:49:33;18.10;97.80
19646;DHT22;9971;52.446;13.452;2023-05-02T13:54:35;17.60;98.40
19646;DHT22;9971;52.446;13.452;2023-05-02T13:59:38;17.20;98.20
19646;DHT22;9971;52.446;13.452;2023-05-02T14:04:40;17.10;99.20
19646;DHT22;9971;52.446;13.452;2023-05-02T14:09:43;17.10;98.40
19646;DHT22;9971;52.446;13.452;2023-05-02T14:14:45;17.00;98.10
19646;DHT22;9971;52.446;13.452;2023-05-02T14:19:48;16.90;98.10
19646;DHT22;9971;52.446;13.452;2023-05-02T14:24:50;16.80;97.00
19646;DHT22;9971;52.446;13.452;2023-05-02T14:29:53;16.90;97.00
19646;DHT22;9971;52.446;13.452;2023-05-02T14:34:55;17.10;96.00
19646;DHT22;9971;52.446;13.452;2023-05-02T14:39:58;17.00;95.40
19646;DHT22;9971;52.446;13.452;2023-05-02T14:45:01;16.50;96.60
19646;DHT22;9971;52.446;13.452;2023-05-02T14:50:03;16.20;96.80
19646;DHT22;9971;52.446;13.452;2023-05-02T14:55:06;15.90;96.90
19646;DHT22;9971;52.446;13.452;2023-05-02T15:00:09;16.00;97.10
19646;DHT22;9971;52.446;13.452;2023-05-02T15:05:12;15.90;96.70
19646;DHT22;9971;52.446;13.452;2023-05-02T15:10:14;15.50;96.30
19646;DHT22;9971;52.446;13.452;2023-05-02T15:15:17;15.20;97.20
19646;DHT22;9971;52.446;13.452;2023-05-02T15:20:19;15.00;98.50
19646;DHT22;9971;52.446;13.452;2023-05-02T15:25:22;14.70;98.80
19646;DHT22;9971;52.446;13.452;2023-05-02T15:30:24;14.60;99.50
19646;DHT22;9971;52.446;13.452;2023-05-02T15:35:27;14.40;99.40
19646;DHT22;9971;52.446;13.452;2023-05-02T15:40:29;14.30;99.90
19646;DHT22;9971;52.446;13.452;2023-05-02T15:45:32;14.20;99.90
19646;DHT22;9971;52.446;13.452;2023-05-02T15:50:34;14.10;99.90
19646;DHT22;9971;52.446;13.452;2023-05-02T15:55:37;14.20;99.90
19646;DHT22;9971;52.446;13.452;2023-05-02T16:00:40;14.40;99.50
19646;DHT22;9971;52.446;13.452;2023-05-02T16:05:42;14.80;97.10
19646;DHT22;9971;52.446;13.452;2023-05-02T16:10:45;15.20;96.90
19646;DHT22;9971;52.446;13.452;2023-05-02T16:15:47;15.60;96.00
19646;DHT22;9971;52.446;13.452;2023-05-02T16:20:50;15.60;95.00
19646;DHT22;9971;52.446;13.452;2023-05-02T16:25:57;16.10;94.40
19646;DHT22;9971;52.446;13.452;2023-05-02T16:31:03;16.40;94.20
19646;DHT22;9971;52.446;13.452;2023-05-02T16:36:01;16.70;92.70
19646;DHT22;9971;52.446;13.452;2023-05-02T16:41:03;16.70;92.00
19646;DHT22;9971;52.446;13.452;2023-05-02T16:46:04;16.30;92.40
19646;DHT22;9971;52.446;13.452;2023-05-02T16:51:06;16.30;91.90
19646;DHT22;9971;52.446;13.452;2023-05-02T16:56:09;16.10;92.10
19646;DHT22;9971;52.446;13.452;2023-05-02T17:01:11;15.90;92.20
19646;DHT22;9971;52.446;13.452;2023-05-02T17:06:13;15.80;92.60
19646;DHT22;9971;52.446;13.452;2023-05-02T17:11:16;16.00;92.70
19646;DHT22;9971;52.446;13.452;2023-05-02T17:16:18;15.90;92.60
19646;DHT22;9971;52.446;13.452;2023-05-02T17:21:21;15.80;92.10
19646;DHT22;9971;52.446;13.452;2023-05-02T17:26:23;15.60;92.60
19646;DHT22;9971;52.446;13.452;2023-05-02T17:31:25;15.50;92.50
19646;DHT22;9971;52.446;13.452;2023-05-02T17:36:28;15.40;92.50
19646;DHT22;9971;52.446;13.452;2023-05-02T17:41:30;15.30;92.50
19646;DHT22;9971;52.446;13.452;2023-05-02T17:46:32;15.10;93.10
19646;DHT22;9971;52.446;13.452;2023-05-02T17:51:35;14.90;93.50
19646;DHT22;9971;52.446;13.452;2023-05-02T17:56:37;14.60;93.80
19646;DHT22;9971;52.446;13.452;2023-05-02T18:01:40;14.50;93.90
19646;DHT22;9971;52.446;13.452;2023-05-02T18:06:42;14.30;94.10
19646;DHT22;9971;52.446;13.452;2023-05-02T18:11:45;14.20;94.20
19646;DHT22;9971;52.446;13.452;2023-05-02T18:16:47;14.00;95.00
19646;DHT22;9971;52.446;13.452;2023-05-02T18:21:50;13.90;94.90
19646;DHT22;9971;52.446;13.452;2023-05-02T18:26:52;13.80;94.90
19646;DHT22;9971;52.446;13.452;2023-05-02T18:31:55;13.80;95.10
19646;DHT22;9971;52.446;13.452;2023-05-02T18:36:58;13.70;94.70
19646;DHT22;9971;52.446;13.452;2023-05-02T18:42:00;13.70;94.80
19646;DHT22;9971;52.446;13.452;2023-05-02T18:47:04;13.60;94.20
19646;DHT22;9971;52.446;13.452;2023-05-02T18:52:06;13.50;94.40
19646;DHT22;9971;52.446;13.452;2023-05-02T18:57:09;13.50;94.20
19646;DHT22;9971;52.446;13.452;2023-05-02T19:02:13;13.40;94.30
19646;DHT22;9971;52.446;13.452;2023-05-02T19:07:14;13.40;94.20
19646;DHT22;9971;52.446;13.452;2023-05-02T19:12:17;13.40;94.00
19646;DHT22;9971;52.446;13.452;2023-05-02T19:17:19;13.40;94.10
19646;DHT22;9971;52.446;13.452;2023-05-02T19:22:22;13.40;93.60
19646;DHT22;9971;52.446;13.452;2023-05-02T19:27:24;13.40;94.00
19646;DHT22;9971;52.446;13.452;2023-05-02T19:32:26;13.40;94.00
19646;DHT22;9971;52.446;13.452;2023-05-02T19:37:28;13.40;93.90
19646;DHT22;9971;52.446;13.452;2023-05-02T19:42:31;13.40;94.00
19646;DHT22;9971;52.446;13.452;2023-05-02T19:47:34;13.40;93.50
19646;DHT22;9971;52.446;13.452;2023-05-02T19:52:36;13.40;94.00
19646;DHT22;9971;52.446;13.452;2023-05-02T19:57:38;13.40;94.70
19646;DHT22;9971;52.446;13.452;2023-05-02T20:02:40;13.40;95.50
19646;DHT22;9971;52.446;13.452;2023-05-02T20:07:42;13.30;95.70
19646;DHT22;9971;52.446;13.452;2023-05-02T20:12:45;13.30;96.00
19646;DHT22;9971;52.446;13.452;2023-05-02T20:17:50;13.30;95.80
19646;DHT22;9971;52.446;13.452;2023-05-02T20:22:52;13.20;96.00
19646;DHT22;9971;52.446;13.452;2023-05-02T20:27:55;13.10;96.10
19646;DHT22;9971;52.446;13.452;2023-05-02T20:32:58;13.10;96.60
19646;DHT22;9971;52.446;13.452;2023-05-02T20:38:00;13.00;97.10
19646;DHT22;9971;52.446;13.452;2023-05-02T20:43:03;12.90;97.60
19646;DHT22;9971;52.446;13.452;2023-05-02T20:48:05;12.90;97.90
19646;DHT22;9971;52.446;13.452;2023-05-02T20:53:07;12.80;98.20
19646;DHT22;9971;52.446;13.452;2023-05-02T20:58:10;12.80;98.40
19646;DHT22;9971;52.446;13.452;2023-05-02T21:03:12;12.80;98.70
19646;DHT22;9971;52.446;13.452;2023-05-02T21:08:14;12.70;99.10
19646;DHT22;9971;52.446;13.452;2023-05-02T21:13:17;12.70;98.90
19646;DHT22;9971;52.446;13.452;2023-05-02T21:18:19;12.70;99.20
19646;DHT22;9971;52.446;13.452;2023-05-02T21:23:22;12.60;99.40
19646;DHT22;9971;52.446;13.452;2023-05-02T21:28:24;12.50;99.60
19646;DHT22;9971;52.446;13.452;2023-05-02T21:33:27;12.40;99.30
19646;DHT22;9971;52.446;13.452;2023-05-02T21:38:29;12.40;99.50
19646;DHT22;9971;52.446;13.452;2023-05-02T21:43:33;12.40;99.70
19646;DHT22;9971;52.446;13.452;2023-05-02T21:48:33;12.30;99.80
19646;DHT22;9971;52.446;13.452;2023-05-02T21:53:35;12.20;99.70
19646;DHT22;9971;52.446;13.452;2023-05-02T21:58:38;12.20;99.90
19646;DHT22;9971;52.446;13.452;2023-05-02T22:03:40;12.20;99.70
19646;DHT22;9971;52.446;13.452;2023-05-02T22:08:43;12.10;99.70
19646;DHT22;9971;52.446;13.452;2023-05-02T22:13:46;12.10;99.70
19646;DHT22;9971;52.446;13.452;2023-05-02T22:18:48;12.00;99.50
19646;DHT22;9971;52.446;13.452;2023-05-02T22:23:50;12.00;99.30
19646;DHT22;9971;52.446;13.452;2023-05-02T22:28:52;12.00;99.20
19646;DHT22;9971;52.446;13.452;2023-05-02T22:33:55;12.00;99.00
19646;DHT22;9971;52.446;13.452;2023-05-02T22:38:58;12.00;98.60
19646;DHT22;9971;52.446;13.452;2023-05-02T22:44:00;12.10;98.40
19646;DHT22;9971;52.446;13.452;2023-05-02T22:49:03;12.10;98.70
19646;DHT22;9971;52.446;13.452;2023-05-02T22:54:05;12.10;98.50
19646;DHT22;9971;52.446;13.452;2023-05-02T22:59:08;12.10;98.50
19646;DHT22;9971;52.446;13.452;2023-05-02T23:04:11;12.10;98.70
19646;DHT22;9971;52.446;13.452;2023-05-02T23:09:14;12.00;99.30
19646;DHT22;9971;52.446;13.452;2023-05-02T23:14:16;12.00;99.90
19646;DHT22;9971;52.446;13.452;2023-05-02T23:19:18;11.80;99.90
19646;DHT22;9971;52.446;13.452;2023-05-02T23:24:21;11.80;99.90
19646;DHT22;9971;52.446;13.452;2023-05-02T23:29:24;11.70;99.90
19646;DHT22;9971;52.446;13.452;2023-05-02T23:34:25;11.70;99.90
19646;DHT22;9971;52.446;13.452;2023-05-02T23:39:27;11.60;99.90
19646;DHT22;9971;52.446;13.452;2023-05-02T23:44:30;11.60;99.90
19646;DHT22;9971;52.446;13.452;2023-05-02T23:49:32;11.50;99.90
19646;DHT22;9971;52.446;13.452;2023-05-02T23:54:35;11.50;99.90
19646;DHT22;9971;52.446;13.452;2023-05-02T23:59:37;11.50;99.90
